Time;durP1;ratioP1;P1;durP2;ratioP2;P2;SDS_P1;SDS_P2;PMS_P1;PMS_P2;Temp;Humidity;BMP_temperature;BMP_pressure;BME280_temperature;BME280_humidity;BME280_pressure;Samples;Min_cycle;Max_cycle;Signal;HPM_P1;HPM_P2
2021/07/06 00:00:35;;;;;;;6.65;5.65;;;;;;;14.69;80.38;95460.89;1787594;80;21013;-59
2021/07/06 00:03:04;;;;;;;7.17;5.90;;;;;;;14.74;80.24;95460.72;1787241;80;21022;-59
2021/07/06 00:05:31;;;;;;;7.65;4.90;;;;;;;14.70;79.81;95462.64;1787595;80;21049;-59
2021/07/06 00:07:58;;;;;;;7.03;5.83;;;;;;;14.62;80.16;95460.27;1787748;80;21006;-58
2021/07/06 00:10:25;;;;;;;7.95;5.12;;;;;;;14.61;80.32;95465.16;1787266;80;21041;-59
2021/07/06 00:12:54;;;;;;;8.98;5.53;;;;;;;14.59;80.05;95460.82;1787494;80;21028;-59
2021/07/06 00:15:26;;;;;;;6.00;5.40;;;;;;;14.59;80.67;95459.49;1788112;80;21464;-59
2021/07/06 00:17:52;;;;;;;9.90;5.75;;;;;;;14.70;80.79;95464.83;1785939;80;21001;-59
2021/07/06 00:20:20;;;;;;;6.90;5.97;;;;;;;14.80;80.55;95464.50;1787844;80;21053;-59
2021/07/06 00:22:48;;;;;;;5.87;4.90;;;;;;;14.78;80.18;95460.56;1787319;80;21002;-59
2021/07/06 00:25:15;;;;;;;6.87;4.90;;;;;;;14.69;79.11;95463.11;1787732;80;21463;-58
2021/07/06 00:27:42;;;;;;;8.63;5.10;;;;;;;14.53;79.76;95459.70;1782496;80;21005;-59
2021/07/06 00:30:10;;;;;;;6.03;5.40;;;;;;;14.42;79.74;95462.75;1787755;80;21008;-59
2021/07/06 00:32:37;;;;;;;8.50;5.72;;;;;;;14.33;80.51;95466.58;1787824;80;21037;-59
2021/07/06 00:35:06;;;;;;;7.62;5.75;;;;;;;14.36;80.50;95458.97;1791126;80;21550;-59
2021/07/06 00:37:32;;;;;;;7.08;5.53;;;;;;;14.44;80.58;95470.20;1796288;79;21526;-59
2021/07/06 00:40:00;;;;;;;12.40;5.53;;;;;;;14.46;80.71;95461.70;1795959;80;21001;-59
2021/07/06 00:42:27;;;;;;;6.40;5.65;;;;;;;14.53;80.54;95466.34;1796161;79;21435;-59
2021/07/06 00:44:54;;;;;;;7.45;5.67;;;;;;;14.49;80.48;95460.28;1796240;79;21029;-59
2021/07/06 00:47:34;;;;;;;6.67;5.70;;;;;;;14.43;80.15;95464.00;1796377;80;20973;-59
2021/07/06 00:50:04;;;;;;;7.12;5.75;;;;;;;14.37;80.12;95460.25;1796866;80;21061;-59
2021/07/06 00:52:31;;;;;;;8.68;5.80;;;;;;;14.40;80.58;95464.11;1796465;80;20990;-59
2021/07/06 00:54:57;;;;;;;6.35;5.75;;;;;;;14.33;81.25;95468.37;1796201;79;21021;-58
2021/07/06 00:57:30;;;;;;;7.40;5.40;;;;;;;14.32;80.89;95461.34;1796184;80;21496;-59
2021/07/06 01:00:15;;;;;;;6.58;4.58;;;;;;;14.32;80.92;95459.55;1796137;80;21045;-59
2021/07/06 01:02:42;;;;;;;7.08;5.92;;;;;;;14.26;80.95;95461.97;1792548;80;20993;-59
2021/07/06 01:05:13;;;;;;;7.00;5.50;;;;;;;14.23;80.80;95464.70;1795953;80;21079;-59
2021/07/06 01:07:40;;;;;;;7.15;5.37;;;;;;;14.21;80.82;95464.34;1795851;80;21016;-59
2021/07/06 01:10:09;;;;;;;7.92;5.42;;;;;;;14.10;80.10;95459.42;1795983;79;21059;-59
2021/07/06 01:12:36;;;;;;;6.55;5.85;;;;;;;14.06;80.74;95465.31;1796154;79;21032;-60
2021/07/06 01:15:08;;;;;;;12.43;6.35;;;;;;;14.02;81.85;95464.99;1796203;79;21005;-59
2021/07/06 01:17:37;;;;;;;9.18;5.17;;;;;;;13.98;81.95;95466.00;1796315;80;20992;-58
2021/07/06 01:20:11;;;;;;;7.30;5.42;;;;;;;13.93;82.20;95464.44;1796125;79;21009;-59
2021/07/06 01:22:38;;;;;;;6.78;5.58;;;;;;;13.90;81.73;95465.41;1796373;80;21020;-59
2021/07/06 01:25:08;;;;;;;7.95;6.42;;;;;;;13.83;82.54;95459.89;1795954;80;21042;-59
2021/07/06 01:27:36;;;;;;;7.30;5.83;;;;;;;13.82;82.08;95458.17;1796130;79;21045;-59
2021/07/06 01:30:06;;;;;;;6.40;5.67;;;;;;;13.78;81.85;95456.09;1796155;79;21005;-59
2021/07/06 01:32:33;;;;;;;9.33;6.65;;;;;;;13.77;82.13;95458.78;1796207;80;20999;-59
2021/07/06 01:34:59;;;;;;;8.30;5.55;;;;;;;13.77;81.57;95460.11;1790860;79;21057;-59
2021/07/06 01:37:26;;;;;;;8.95;6.58;;;;;;;13.81;82.16;95462.61;1777471;81;20962;-58
2021/07/06 01:39:53;;;;;;;7.30;6.60;;;;;;;13.83;81.78;95455.48;1777543;80;21077;-59
2021/07/06 01:42:23;;;;;;;7.72;6.15;;;;;;;13.89;81.78;95463.69;1777540;81;21113;-59
2021/07/06 01:45:12;;;;;;;6.83;5.58;;;;;;;13.93;81.24;95456.47;1777514;81;21007;-59
2021/07/06 01:47:42;;;;;;;5.87;5.17;;;;;;;13.88;81.54;95461.93;1777530;80;21536;-59
2021/07/06 01:50:13;;;;;;;7.60;6.40;;;;;;;13.73;81.56;95457.14;1777686;81;21483;-58
2021/07/06 01:52:46;;;;;;;13.10;6.00;;;;;;;13.76;81.98;95464.55;1777677;80;20978;-59
2021/07/06 01:55:16;;;;;;;8.78;6.10;;;;;;;13.76;81.97;95469.00;1777852;80;21488;-59
2021/07/06 01:57:44;;;;;;;8.30;6.28;;;;;;;13.72;82.02;95456.74;1777729;80;21046;-58
2021/07/06 02:00:15;;;;;;;8.08;6.37;;;;;;;13.74;82.21;95458.42;1777592;80;21527;-58
2021/07/06 02:02:43;;;;;;;11.08;6.22;;;;;;;13.80;82.11;95458.67;1777699;81;21479;-59
2021/07/06 02:05:27;;;;;;;8.58;6.17;;;;;;;13.83;82.14;95458.13;1777712;80;20998;-59
2021/07/06 02:07:55;;;;;;;7.25;5.65;;;;;;;13.83;82.24;95460.78;1777701;80;21029;-60
2021/07/06 02:10:23;;;;;;;9.07;5.97;;;;;;;13.78;81.51;95457.42;1777916;81;21093;-59
2021/07/06 02:12:49;;;;;;;9.25;5.47;;;;;;;13.74;81.89;95462.87;1777783;81;21034;-59
2021/07/06 02:15:17;;;;;;;9.70;6.22;;;;;;;13.72;82.09;95468.21;1777625;80;21002;-59
2021/07/06 02:17:45;;;;;;;7.35;5.72;;;;;;;13.74;82.35;95465.06;1778044;80;20993;-59
2021/07/06 02:20:17;;;;;;;9.00;6.17;;;;;;;13.78;82.30;95469.35;1777566;81;21085;-59
2021/07/06 02:22:47;;;;;;;9.00;6.15;;;;;;;13.80;81.81;95460.86;1778008;81;21005;-59
2021/07/06 02:25:17;;;;;;;10.78;5.90;;;;;;;13.74;82.10;95468.17;1777935;81;21044;-59
2021/07/06 02:27:47;;;;;;;9.70;6.08;;;;;;;13.73;82.36;95463.30;1777957;81;20978;-59
2021/07/06 02:30:19;;;;;;;8.65;6.40;;;;;;;13.71;82.22;95466.48;1777752;81;21010;-59
2021/07/06 02:32:47;;;;;;;10.10;5.97;;;;;;;13.67;82.02;95470.14;1777911;81;21066;-58
2021/07/06 02:35:15;;;;;;;8.88;5.83;;;;;;;13.63;82.05;95472.05;1777843;80;21009;-59
2021/07/06 02:37:42;;;;;;;8.85;5.70;;;;;;;13.63;82.37;95471.16;1751604;81;21053;-58
2021/07/06 02:40:11;;;;;;;5.97;5.40;;;;;;;13.56;82.43;95478.45;1777813;80;21019;-59
2021/07/06 02:42:39;;;;;;;7.80;5.70;;;;;;;13.55;81.86;95477.17;1777945;81;21078;-59
2021/07/06 02:45:10;;;;;;;8.38;5.70;;;;;;;13.48;82.29;95479.17;1777591;80;21496;-58
2021/07/06 02:47:36;;;;;;;9.00;5.70;;;;;;;13.47;82.80;95475.23;1777827;81;21010;-59
2021/07/06 02:50:06;;;;;;;9.15;6.20;;;;;;;13.45;82.57;95475.27;1777677;80;21050;-59
2021/07/06 02:52:33;;;;;;;8.00;6.08;;;;;;;13.49;82.84;95482.68;1777755;81;20982;-59
2021/07/06 02:55:00;;;;;;;7.10;6.05;;;;;;;13.57;82.44;95481.50;1777879;81;21065;-59
2021/07/06 02:57:35;;;;;;;8.45;6.55;;;;;;;13.57;82.54;95483.30;1777555;80;21539;-59
2021/07/06 03:00:16;;;;;;;8.20;6.15;;;;;;;13.66;82.76;95485.66;1777760;80;21568;-58
2021/07/06 03:02:46;;;;;;;8.28;6.03;;;;;;;13.65;82.30;95487.88;1778007;80;21049;-58
2021/07/06 03:05:15;;;;;;;8.98;5.67;;;;;;;13.65;82.46;95486.56;1777723;81;20974;-59
2021/07/06 03:07:44;;;;;;;6.83;5.92;;;;;;;13.63;82.04;95491.03;1777770;80;20959;-59
2021/07/06 03:10:14;;;;;;;29.07;21.68;;;;;;;13.59;83.34;95490.74;1777794;81;20998;-59
2021/07/06 03:12:42;;;;;;;21.27;14.05;;;;;;;13.55;83.15;95492.61;1777678;81;21460;-59
2021/07/06 03:15:13;;;;;;;17.62;10.78;;;;;;;13.56;82.71;95488.20;1777473;80;21025;-59
2021/07/06 03:17:40;;;;;;;9.30;7.78;;;;;;;13.58;83.15;95494.30;1777914;80;21008;-59
2021/07/06 03:20:10;;;;;;;51.85;46.68;;;;;;;13.60;83.66;95496.45;1777518;81;21001;-59
2021/07/06 03:22:37;;;;;;;39.95;35.95;;;;;;;13.63;83.48;95506.94;1777891;80;20997;-59
2021/07/06 03:25:08;;;;;;;15.58;12.15;;;;;;;13.58;83.31;95500.92;1777529;81;21057;-59
2021/07/06 03:27:36;;;;;;;13.53;11.30;;;;;;;13.64;83.42;95502.93;1777927;80;21503;-59
2021/07/06 03:30:07;;;;;;;13.83;11.03;;;;;;;13.71;83.63;95499.63;1777654;80;21045;-59
2021/07/06 03:32:34;;;;;;;9.63;8.48;;;;;;;13.79;83.36;95502.03;1777654;81;21009;-59
2021/07/06 03:35:01;;;;;;;16.27;10.98;;;;;;;13.92;83.08;95505.15;1777538;80;21022;-59
2021/07/06 03:37:28;;;;;;;15.65;8.35;;;;;;;14.07;82.90;95508.62;1787655;80;21054;-58
2021/07/06 03:39:55;;;;;;;9.73;8.28;;;;;;;14.21;82.59;95509.02;1787644;80;21005;-59
2021/07/06 03:42:21;;;;;;;12.13;7.58;;;;;;;14.26;82.07;95511.06;1787925;80;21037;-59
2021/07/06 03:44:48;;;;;;;11.25;7.75;;;;;;;14.30;81.58;95506.50;1787194;80;20990;-59
2021/07/06 03:47:15;;;;;;;8.33;6.95;;;;;;;14.41;81.74;95511.42;1787404;80;21065;-59
2021/07/06 03:49:41;;;;;;;10.75;7.20;;;;;;;14.49;81.57;95512.05;1787794;80;20997;-59
2021/07/06 03:52:07;;;;;;;7.80;7.00;;;;;;;14.63;81.79;95513.77;1787760;80;20993;-59
2021/07/06 03:54:34;;;;;;;7.95;7.08;;;;;;;14.69;81.86;95516.66;1787527;80;21017;-59
2021/07/06 03:57:00;;;;;;;13.68;7.00;;;;;;;14.67;81.98;95517.20;1787796;80;21451;-59
2021/07/06 03:59:27;;;;;;;10.03;7.47;;;;;;;14.67;81.86;95519.85;1787457;80;21025;-59
2021/07/06 04:01:54;;;;;;;12.53;7.67;;;;;;;14.76;82.17;95518.17;1787770;80;21028;-59
2021/07/06 04:04:21;;;;;;;9.85;7.45;;;;;;;14.90;82.39;95525.66;1787403;80;21017;-59
2021/07/06 04:06:48;;;;;;;8.50;6.65;;;;;;;15.04;82.42;95526.46;1787881;80;20981;-59
2021/07/06 04:09:16;;;;;;;12.50;6.85;;;;;;;15.10;82.03;95525.78;1787556;80;20994;-59
2021/07/06 04:11:43;;;;;;;13.65;6.80;;;;;;;15.18;81.98;95527.29;1787430;80;21050;-59
2021/07/06 04:14:10;;;;;;;9.85;7.00;;;;;;;15.18;82.11;95525.97;1787379;80;21036;-60
2021/07/06 04:16:40;;;;;;;12.53;7.28;;;;;;;15.26;82.14;95534.03;1787745;80;21479;-59
2021/07/06 04:19:06;;;;;;;8.58;7.25;;;;;;;15.31;82.39;95541.84;1787656;80;20964;-59
2021/07/06 04:21:35;;;;;;;11.38;6.87;;;;;;;15.44;82.33;95529.80;1787606;80;21009;-59
2021/07/06 04:24:02;;;;;;;10.30;8.18;;;;;;;15.61;82.11;95534.95;1787589;80;21053;-58
2021/07/06 04:26:29;;;;;;;11.68;8.68;;;;;;;15.75;81.87;95537.97;1787326;80;20986;-59
2021/07/06 04:28:55;;;;;;;10.55;8.43;;;;;;;15.92;81.78;95538.12;1787365;80;21077;-59
2021/07/06 04:31:22;;;;;;;10.70;8.08;;;;;;;16.07;81.46;95535.31;1787923;80;21036;-59
2021/07/06 04:33:48;;;;;;;11.90;8.18;;;;;;;16.13;80.79;95541.73;1787957;80;21002;-59
2021/07/06 04:36:14;;;;;;;12.43;8.40;;;;;;;16.22;80.81;95539.14;1784296;80;21444;-59
2021/07/06 04:38:43;;;;;;;9.20;8.30;;;;;;;16.31;80.56;95537.91;1777911;81;21029;-59
2021/07/06 04:41:09;;;;;;;14.05;8.43;;;;;;;16.34;80.26;95542.63;1777788;81;21010;-59
2021/07/06 04:43:36;;;;;;;12.18;10.20;;;;;;;16.41;80.10;95544.10;1777773;81;21010;-59
2021/07/06 04:46:03;;;;;;;12.10;8.80;;;;;;;16.48;80.03;95538.06;1777694;81;21042;-59
2021/07/06 04:48:30;;;;;;;9.65;8.28;;;;;;;16.64;80.32;95538.27;1777804;81;21002;-59
2021/07/06 04:51:03;;;;;;;9.00;8.10;;;;;;;16.81;79.20;95535.77;1777317;81;21472;-59
2021/07/06 04:53:25;;;;;;;13.70;8.45;;;;;;;16.89;78.90;95535.90;1775850;81;21034;-59
2021/07/06 04:55:51;;;;;;;11.68;8.40;;;;;;;16.96;78.96;95540.89;1777864;81;20978;-58
2021/07/06 04:58:17;;;;;;;10.93;8.68;;;;;;;17.02;78.75;95531.74;1777526;80;21010;-59
2021/07/06 05:00:44;;;;;;;14.15;8.10;;;;;;;17.10;78.19;95533.59;1777949;81;21002;-59
2021/07/06 05:03:12;;;;;;;11.68;8.33;;;;;;;17.23;78.42;95533.42;1777811;81;21017;-59
2021/07/06 05:05:39;;;;;;;14.10;8.40;;;;;;;17.33;77.78;95541.87;1777813;80;21010;-58
2021/07/06 05:08:11;;;;;;;12.00;8.75;;;;;;;17.39;77.71;95537.61;1777729;81;21428;-59
2021/07/06 05:10:38;;;;;;;11.18;8.80;;;;;;;17.45;78.00;95535.97;1777620;81;20998;-59
2021/07/06 05:13:05;;;;;;;11.80;8.03;;;;;;;17.55;77.89;95540.41;1777912;80;20993;-59
2021/07/06 05:15:32;;;;;;;13.62;9.75;;;;;;;17.66;78.57;95539.90;1777630;81;21499;-59
2021/07/06 05:17:58;;;;;;;11.38;8.60;;;;;;;17.75;78.75;95540.81;1777742;81;20950;-59
2021/07/06 05:20:24;;;;;;;14.98;9.45;;;;;;;17.86;78.57;95541.66;1777807;80;21002;-59
2021/07/06 05:22:51;;;;;;;15.90;8.63;;;;;;;17.96;77.93;95538.94;1777742;81;20983;-59
2021/07/06 05:25:17;;;;;;;12.73;8.78;;;;;;;18.04;77.48;95545.23;1777683;80;21479;-59
2021/07/06 05:27:44;;;;;;;15.35;8.80;;;;;;;18.11;77.16;95542.19;1778032;81;20934;-59
2021/07/06 05:30:13;;;;;;;16.07;9.93;;;;;;;18.23;77.25;95543.88;1777639;80;21495;-59
2021/07/06 05:32:40;;;;;;;13.43;9.23;;;;;;;18.34;77.10;95548.20;1777704;80;21044;-59
2021/07/06 05:35:08;;;;;;;12.43;8.65;;;;;;;18.45;77.03;95547.20;1777398;80;21021;-59
2021/07/06 05:37:36;;;;;;;12.03;8.90;;;;;;;18.59;76.71;95555.84;1785260;80;21064;-59
2021/07/06 05:40:10;;;;;;;14.18;9.00;;;;;;;18.69;76.65;95556.25;1787570;80;20949;-59
2021/07/06 05:42:38;;;;;;;12.70;8.65;;;;;;;18.84;76.83;95555.97;1787944;80;20994;-59
2021/07/06 05:45:07;;;;;;;12.20;8.18;;;;;;;18.97;76.33;95559.25;1787706;80;20993;-58
2021/07/06 05:47:38;;;;;;;13.80;8.60;;;;;;;19.03;76.31;95556.27;1787774;80;21069;-59
2021/07/06 05:50:08;;;;;;;11.45;8.15;;;;;;;19.18;75.96;95555.94;1787920;80;20981;-59
2021/07/06 05:52:35;;;;;;;12.75;8.73;;;;;;;19.28;75.88;95551.41;1787747;80;21476;-59
2021/07/06 05:55:03;;;;;;;10.85;8.58;;;;;;;19.39;75.88;95549.05;1787811;80;20989;-59
2021/07/06 05:57:30;;;;;;;12.90;9.10;;;;;;;19.56;75.69;95548.13;1787829;80;21495;-59
2021/07/06 06:00:09;;;;;;;9.35;8.30;;;;;;;19.76;75.84;95552.42;1787695;80;20958;-59
2021/07/06 06:02:36;;;;;;;8.83;7.92;;;;;;;19.92;75.30;95550.60;1787762;80;21001;-59
2021/07/06 06:05:06;;;;;;;9.70;8.13;;;;;;;20.05;75.19;95550.30;1787748;80;21064;-58
2021/07/06 06:07:41;;;;;;;11.00;8.40;;;;;;;20.24;74.80;95552.80;1787774;80;21542;-59
2021/07/06 06:10:11;;;;;;;11.80;7.87;;;;;;;20.42;74.51;95551.35;1787498;80;20974;-59
2021/07/06 06:12:38;;;;;;;9.63;7.45;;;;;;;20.58;74.06;95551.34;1787840;80;21056;-59
2021/07/06 06:15:08;;;;;;;9.08;7.53;;;;;;;20.72;73.60;95551.41;1787549;80;20981;-59
2021/07/06 06:17:36;;;;;;;12.35;8.18;;;;;;;20.87;73.03;95552.31;1787854;80;21049;-59
2021/07/06 06:20:06;;;;;;;10.93;7.83;;;;;;;20.93;72.13;95550.10;1787777;80;20978;-59
2021/07/06 06:22:34;;;;;;;11.05;8.00;;;;;;;21.11;72.80;95553.97;1787860;80;21009;-59
2021/07/06 06:25:02;;;;;;;11.18;8.20;;;;;;;21.26;72.40;95551.69;1788071;80;20981;-59
2021/07/06 06:27:29;;;;;;;17.07;7.80;;;;;;;21.44;71.99;95552.41;1787694;80;21061;-60
2021/07/06 06:29:56;;;;;;;11.57;8.58;;;;;;;21.58;71.26;95547.05;1788071;80;20958;-59
2021/07/06 06:32:23;;;;;;;14.75;8.78;;;;;;;21.71;71.12;95543.59;1787726;80;21033;-59
2021/07/06 06:34:51;;;;;;;15.58;8.53;;;;;;;21.83;71.24;95547.70;1787553;80;21527;-59
2021/07/06 06:37:18;;;;;;;9.53;8.00;;;;;;;21.96;70.40;95546.91;1787744;80;20982;-59
2021/07/06 06:39:45;;;;;;;11.30;8.48;;;;;;;22.06;69.39;95552.08;1787813;80;20966;-59
2021/07/06 06:42:11;;;;;;;13.03;8.03;;;;;;;22.19;68.39;95554.83;1787546;80;21018;-59
2021/07/06 06:44:38;;;;;;;16.50;7.80;;;;;;;22.27;68.73;95551.18;1787563;80;21009;-59
2021/07/06 06:47:06;;;;;;;13.98;8.08;;;;;;;22.38;68.15;95554.53;1787607;80;21017;-59
2021/07/06 06:49:34;;;;;;;9.33;7.40;;;;;;;22.51;67.99;95559.47;1787722;80;21471;-59
2021/07/06 06:52:01;;;;;;;11.38;7.08;;;;;;;22.59;66.05;95554.44;1787900;80;20981;-59
2021/07/06 06:54:27;;;;;;;13.30;7.20;;;;;;;22.66;65.85;95554.89;1787462;80;21025;-59
2021/07/06 06:56:54;;;;;;;11.53;7.78;;;;;;;22.77;64.64;95558.20;1787550;80;20986;-59
2021/07/06 06:59:20;;;;;;;7.65;6.95;;;;;;;22.87;64.53;95560.64;1787663;80;21033;-59
2021/07/06 07:01:46;;;;;;;9.85;7.28;;;;;;;22.94;60.45;95561.10;1787195;80;21009;-59
2021/07/06 07:04:13;;;;;;;9.05;6.70;;;;;;;23.02;62.43;95562.32;1787313;80;21539;-59
2021/07/06 07:06:40;;;;;;;11.30;6.97;;;;;;;23.08;60.86;95564.61;1787838;80;20981;-59
2021/07/06 07:09:08;;;;;;;7.80;6.65;;;;;;;23.16;60.81;95566.77;1787436;80;21020;-59
2021/07/06 07:11:35;;;;;;;9.35;6.95;;;;;;;23.19;59.23;95565.20;1787825;80;21025;-59
2021/07/06 07:14:02;;;;;;;10.23;6.75;;;;;;;23.28;60.82;95562.35;1787785;80;21037;-59
2021/07/06 07:16:28;;;;;;;7.22;6.53;;;;;;;23.40;61.42;95565.53;1787305;80;20989;-59
2021/07/06 07:18:55;;;;;;;8.63;6.95;;;;;;;23.48;58.57;95570.39;1787613;80;21036;-59
2021/07/06 07:21:22;;;;;;;9.68;6.33;;;;;;;23.57;58.52;95566.20;1787527;80;21053;-59
2021/07/06 07:23:49;;;;;;;9.00;7.05;;;;;;;23.64;59.07;95568.34;1787414;80;21045;-59
2021/07/06 07:26:15;;;;;;;7.90;7.10;;;;;;;23.74;56.20;95563.21;1787774;80;20970;-59
2021/07/06 07:28:41;;;;;;;8.43;6.62;;;;;;;23.82;58.52;95554.58;1787864;80;20990;-59
2021/07/06 07:31:08;;;;;;;8.80;7.25;;;;;;;23.87;57.86;95555.11;1787657;80;21029;-60
2021/07/06 07:33:35;;;;;;;8.20;7.20;;;;;;;23.94;58.50;95555.90;1782780;80;21005;-59
2021/07/06 07:36:01;;;;;;;10.53;6.83;;;;;;;24.04;58.30;95549.82;1787894;80;21073;-59
2021/07/06 07:38:27;;;;;;;9.33;7.08;;;;;;;24.16;58.74;95553.83;1778362;80;21005;-59
2021/07/06 07:40:54;;;;;;;9.90;6.75;;;;;;;24.26;58.24;95551.33;1777661;80;20978;-59
2021/07/06 07:43:20;;;;;;;8.20;7.45;;;;;;;24.32;56.77;95548.19;1777524;81;21053;-59
2021/07/06 07:45:47;;;;;;;8.30;6.70;;;;;;;24.39;56.51;95549.92;1777643;81;21030;-59
2021/07/06 07:48:13;;;;;;;10.63;8.40;;;;;;;24.49;57.10;95547.45;1777987;80;21008;-59
2021/07/06 07:50:39;;;;;;;8.88;6.85;;;;;;;24.59;57.17;95550.71;1777478;80;21033;-59
2021/07/06 07:53:06;;;;;;;9.15;6.60;;;;;;;24.69;55.98;95550.00;1777755;80;21002;-59
2021/07/06 07:55:33;;;;;;;10.08;6.85;;;;;;;24.80;56.36;95550.06;1777480;81;21010;-59
2021/07/06 07:57:59;;;;;;;8.50;6.67;;;;;;;24.86;55.22;95546.89;1777545;80;21009;-59
2021/07/06 08:00:26;;;;;;;12.58;6.67;;;;;;;24.93;54.17;95545.45;1777269;81;21014;-59
2021/07/06 08:02:52;;;;;;;7.37;6.28;;;;;;;25.03;54.57;95541.56;1777475;81;21029;-59
2021/07/06 08:05:19;;;;;;;8.30;7.03;;;;;;;25.05;51.95;95545.86;1777820;81;21518;-59
2021/07/06 08:07:46;;;;;;;6.90;6.15;;;;;;;25.08;50.66;95547.95;1777799;80;21009;-59
2021/07/06 08:10:13;;;;;;;7.95;6.65;;;;;;;25.05;51.16;95545.86;1777852;80;20975;-59
2021/07/06 08:12:39;;;;;;;7.37;6.62;;;;;;;25.12;51.40;95544.02;1777730;81;21496;-59
2021/07/06 08:15:07;;;;;;;7.55;6.60;;;;;;;25.24;52.37;95538.56;1777856;81;21049;-59
2021/07/06 08:17:33;;;;;;;6.72;6.17;;;;;;;25.31;52.35;95541.66;1777647;81;20958;-59
2021/07/06 08:20:00;;;;;;;6.33;5.72;;;;;;;25.40;51.70;95546.35;1777751;80;21049;-59
2021/07/06 08:22:27;;;;;;;8.13;6.45;;;;;;;25.52;52.01;95541.80;1777742;80;21022;-59
2021/07/06 08:24:55;;;;;;;7.28;6.58;;;;;;;25.54;50.30;95547.09;1777929;81;21005;-59
2021/07/06 08:27:21;;;;;;;6.62;6.03;;;;;;;25.54;47.82;95549.30;1777654;81;21006;-59
2021/07/06 08:29:48;;;;;;;9.90;6.15;;;;;;;25.59;49.90;95546.24;1777309;81;21002;-59
2021/07/06 08:32:14;;;;;;;7.53;5.85;;;;;;;25.69;50.08;95549.44;1777517;81;21041;-59
2021/07/06 08:34:41;;;;;;;7.25;6.58;;;;;;;25.74;49.64;95548.22;1777696;80;21025;-59
2021/07/06 08:37:08;;;;;;;6.60;6.00;;;;;;;25.80;49.57;95549.08;1777745;80;21002;-59
2021/07/06 08:39:34;;;;;;;7.95;6.53;;;;;;;25.84;49.26;95550.06;1777858;81;20954;-59
2021/07/06 08:42:01;;;;;;;8.03;6.65;;;;;;;25.87;48.24;95551.69;1777352;81;21069;-59
2021/07/06 08:44:28;;;;;;;7.25;6.33;;;;;;;25.91;48.83;95554.53;1777457;81;21516;-59
2021/07/06 08:46:56;;;;;;;13.93;6.97;;;;;;;25.95;48.14;95548.38;1777604;80;21059;-59
2021/07/06 08:49:26;;;;;;;6.95;6.28;;;;;;;25.99;47.93;95556.61;1777820;80;20997;-59
2021/07/06 08:51:53;;;;;;;7.25;6.65;;;;;;;25.97;47.07;95557.22;1777422;81;21013;-59
2021/07/06 08:54:21;;;;;;;10.98;6.72;;;;;;;26.09;48.70;95554.39;1777671;80;21029;-59
2021/07/06 08:56:49;;;;;;;7.97;6.33;;;;;;;26.23;50.31;95554.63;1777296;81;21528;-59
2021/07/06 08:59:16;;;;;;;7.20;6.55;;;;;;;26.36;48.23;95554.95;1777711;81;21058;-59
2021/07/06 09:01:43;;;;;;;7.25;6.65;;;;;;;26.46;47.49;95554.09;1777412;81;20974;-59
2021/07/06 09:04:11;;;;;;;7.37;6.67;;;;;;;26.53;46.61;95551.75;1777760;81;21009;-59
2021/07/06 09:06:56;;;;;;;7.85;6.72;;;;;;;26.55;46.69;95549.29;1778051;81;20974;-59
2021/07/06 09:09:28;;;;;;;7.22;6.40;;;;;;;26.62;47.53;95546.94;1777646;80;21066;-59
2021/07/06 09:11:57;;;;;;;7.20;6.50;;;;;;;26.74;46.69;95549.13;1777849;81;21061;-60
2021/07/06 09:14:27;;;;;;;6.72;6.12;;;;;;;26.76;44.90;95549.84;1777781;80;21061;-59
2021/07/06 09:17:23;;;;;;;7.22;6.10;;;;;;;26.82;46.76;95550.69;1777449;81;20982;-59
2021/07/06 09:19:54;;;;;;;7.30;6.70;;;;;;;26.78;44.75;95545.16;1777533;80;21527;-59
2021/07/06 09:22:25;;;;;;;7.40;6.70;;;;;;;26.83;46.92;95544.78;1777749;81;21057;-59
2021/07/06 09:25:10;;;;;;;7.00;6.30;;;;;;;26.96;47.10;95544.98;1777631;80;21018;-59
2021/07/06 09:27:41;;;;;;;8.33;6.70;;;;;;;27.05;47.58;95544.68;1777846;81;21502;-59
2021/07/06 09:30:18;;;;;;;7.50;6.80;;;;;;;27.21;46.72;95540.69;1777450;80;21081;-60
2021/07/06 09:32:54;;;;;;;8.10;6.25;;;;;;;27.30;48.50;95540.77;1777762;81;20966;-59
2021/07/06 09:35:28;;;;;;;6.53;5.97;;;;;;;27.52;47.07;95541.63;1777914;81;21013;-59
2021/07/06 09:38:04;;;;;;;7.65;6.42;;;;;;;27.64;46.20;95544.59;1777410;80;21018;-59
2021/07/06 09:40:35;;;;;;;6.25;5.75;;;;;;;27.72;45.66;95541.21;1777837;81;20990;-60
2021/07/06 09:43:22;;;;;;;8.15;6.03;;;;;;;27.82;47.88;95540.80;1777541;81;21010;-59
2021/07/06 09:46:03;;;;;;;7.17;5.80;;;;;;;27.92;45.50;95541.73;1777777;80;20998;-60
2021/07/06 09:48:33;;;;;;;9.70;6.53;;;;;;;28.03;44.46;95547.55;1777437;81;21117;-59
2021/07/06 09:51:23;;;;;;;5.97;5.47;;;;;;;28.05;43.75;95543.70;1777539;81;21006;-60
2021/07/06 09:53:53;;;;;;;6.62;6.03;;;;;;;28.14;45.51;95552.00;1754768;81;21538;-59
2021/07/06 09:56:24;;;;;;;8.53;5.95;;;;;;;28.18;43.66;95550.75;1777742;80;20997;-59
2021/07/06 09:58:59;;;;;;;6.22;5.62;;;;;;;27.91;44.85;95546.77;1777478;81;20990;-59
2021/07/06 10:01:28;;;;;;;5.75;5.20;;;;;;;28.00;44.01;95547.33;1777431;81;21029;-60
2021/07/06 10:03:57;;;;;;;6.25;5.37;;;;;;;28.08;43.09;95552.57;1777689;80;21005;-60
2021/07/06 10:06:27;;;;;;;8.20;5.70;;;;;;;28.15;44.21;95553.71;1777885;80;21036;-60
2021/07/06 10:08:56;;;;;;;9.58;6.03;;;;;;;28.24;42.16;95552.89;1777716;81;21009;-60
2021/07/06 10:11:26;;;;;;;7.95;6.50;;;;;;;28.39;43.18;95553.38;1777829;80;20973;-60
2021/07/06 10:13:55;;;;;;;7.53;6.78;;;;;;;28.51;42.57;95557.73;1777550;80;21040;-60
2021/07/06 10:16:20;;;;;;;6.10;5.60;;;;;;;28.61;42.23;95556.39;1777486;81;21013;-59
2021/07/06 10:18:49;;;;;;;7.53;5.35;;;;;;;28.61;42.67;95557.25;1777532;80;21017;-59
2021/07/06 10:21:16;;;;;;;7.10;5.37;;;;;;;28.74;40.85;95559.70;1777603;81;21527;-59
2021/07/06 10:23:44;;;;;;;5.90;5.40;;;;;;;28.78;44.32;95559.78;1777858;80;20997;-59
2021/07/06 10:26:14;;;;;;;6.37;5.47;;;;;;;28.91;42.52;95556.80;1777607;80;21018;-60
2021/07/06 10:28:41;;;;;;;6.47;5.17;;;;;;;29.02;41.11;95559.86;1778029;81;21529;-60
2021/07/06 10:31:17;;;;;;;6.28;5.65;;;;;;;29.09;39.61;95560.54;1777055;81;21030;-63
2021/07/06 10:33:48;;;;;;;13.32;6.17;;;;;;;29.16;39.62;95562.20;1777725;81;21013;-60
2021/07/06 10:36:16;;;;;;;7.42;5.30;;;;;;;29.24;38.75;95565.55;1777826;81;21005;-60
2021/07/06 10:38:46;;;;;;;5.53;5.12;;;;;;;29.32;39.24;95564.32;1777736;80;21543;-60
2021/07/06 10:41:21;;;;;;;6.72;4.92;;;;;;;29.51;41.26;95561.59;1777576;81;21010;-59
2021/07/06 10:43:52;;;;;;;5.90;5.30;;;;;;;29.64;41.47;95561.78;1777580;81;21018;-60
2021/07/06 10:46:30;;;;;;;5.60;5.20;;;;;;;29.62;39.07;95560.56;1777747;80;21025;-60
2021/07/06 10:49:18;;;;;;;8.58;5.22;;;;;;;29.58;36.74;95562.36;1775551;81;21010;-60
2021/07/06 10:51:49;;;;;;;5.80;5.20;;;;;;;29.44;36.99;95565.89;1777718;81;21117;-59
2021/07/06 10:54:22;;;;;;;5.72;5.10;;;;;;;29.57;38.63;95566.09;1777910;81;20998;-59
2021/07/06 10:56:57;;;;;;;5.70;5.10;;;;;;;29.66;37.77;95567.94;1777861;80;21010;-59
2021/07/06 10:59:34;;;;;;;11.03;4.67;;;;;;;29.72;39.19;95568.23;1777597;80;21026;-60
2021/07/06 11:02:16;;;;;;;5.53;4.78;;;;;;;29.66;36.06;95568.83;1777547;80;20994;-59
2021/07/06 11:04:45;;;;;;;9.40;4.87;;;;;;;29.63;36.87;95562.27;1776536;81;21074;-59
2021/07/06 11:07:15;;;;;;;6.87;4.92;;;;;;;29.62;37.47;95557.84;1778574;80;21479;-59
2021/07/06 11:09:52;;;;;;;5.75;4.55;;;;;;;29.76;37.49;95556.54;1777697;81;21002;-60
2021/07/06 11:12:30;;;;;;;12.63;5.40;;;;;;;29.80;34.56;95560.69;1777801;81;21003;-59
2021/07/06 11:15:16;;;;;;;6.08;5.40;;;;;;;29.73;37.58;95554.97;1777807;81;21511;-60
2021/07/06 11:17:50;;;;;;;6.58;4.97;;;;;;;29.78;36.77;95560.48;1769034;81;21492;-59
2021/07/06 11:20:40;;;;;;;6.33;5.08;;;;;;;29.89;34.56;95547.58;1777770;80;21021;-59
2021/07/06 11:23:10;;;;;;;6.50;4.95;;;;;;;29.94;34.55;95551.22;1777583;81;21025;-59
2021/07/06 11:25:40;;;;;;;6.95;5.25;;;;;;;29.92;34.95;95554.08;1777802;81;21540;-60
2021/07/06 11:28:25;;;;;;;10.00;5.08;;;;;;;29.92;34.32;95554.08;1777836;80;20977;-59
2021/07/06 11:30:59;;;;;;;5.35;4.85;;;;;;;29.98;34.87;95550.74;1777679;81;21038;-60
2021/07/06 11:33:40;;;;;;;4.92;4.42;;;;;;;30.05;35.46;95547.45;1777703;81;20982;-59
2021/07/06 11:36:19;;;;;;;5.47;4.85;;;;;;;30.07;34.54;95549.01;1777778;81;21013;-59
2021/07/06 11:38:49;;;;;;;8.43;5.08;;;;;;;30.29;38.62;95545.56;1777760;80;21468;-59
2021/07/06 11:41:19;;;;;;;5.35;4.95;;;;;;;30.32;34.79;95548.86;1777912;80;21459;-60